首页
METAR-TAF:

METAR-TAF

机场 :

Bridgeport Municipal Airport

布里奇波特, 得克萨斯州, 美国

纬度: 33-10-31N, 经度: 097-49-42W, 海拔: 260米

当前天气观测

该预报发布于27分钟前的18:55 UTC
风速5节,风向东转东南
温度 29°C
湿度 62%
气压 1023 hPa
能見度: 16.1公里
散云层高于7000英尺
多云层高于8500英尺

METAR: KXBP 201855Z AUTO 12005KT 10SM SCT070 BKN085 29/21 A3021 RMK AO2 T02940208

时间: 14:22 (19:22 UTC)


TAF: 丢失

超过4000个机场的气象观测和天气预报(METAR&TAF报告)。

可查询的气象台以黄色和红色小点在地图上表示。

将鼠标移到小点上方,可查看气象台名称。

然后点击查看天气观测和预报。

如需切换地图:点击带黑十字的绿色按钮放大地图;点击带横线的绿色按钮缩小地图;或者点击绿色箭头查看邻近地区的地图。


METAR-TAF: